sensor_id;sensor_type;location;lat;lon;timestamp;pressure;altitude;pressure_sealevel;temperature;humidity
57192;BME280;43052;52.588;13.396;2023-03-13T00:02:06;100205.06;;;6.23;76.24
57192;BME280;43052;52.588;13.396;2023-03-13T00:04:31;100200.75;;;6.27;76.33
57192;BME280;43052;52.588;13.396;2023-03-13T00:06:57;100205.97;;;6.32;76.35
57192;BME280;43052;52.588;13.396;2023-03-13T00:09:22;100190.41;;;6.33;76.15
57192;BME280;43052;52.588;13.396;2023-03-13T00:11:47;100198.19;;;6.35;76.10
57192;BME280;43052;52.588;13.396;2023-03-13T00:14:13;100199.06;;;6.38;76.47
57192;BME280;43052;52.588;13.396;2023-03-13T00:16:38;100193.00;;;6.39;76.40
57192;BME280;43052;52.588;13.396;2023-03-13T00:19:05;100194.72;;;6.42;76.08
57192;BME280;43052;52.588;13.396;2023-03-13T00:21:30;100189.53;;;6.43;76.44
57192;BME280;43052;52.588;13.396;2023-03-13T00:23:57;100186.09;;;6.46;76.78
57192;BME280;43052;52.588;13.396;2023-03-13T00:26:24;100180.03;;;6.47;76.66
57192;BME280;43052;52.588;13.396;2023-03-13T00:28:50;100182.63;;;6.49;76.97
57192;BME280;43052;52.588;13.396;2023-03-13T00:31:27;100176.56;;;6.53;76.55
57192;BME280;43052;52.588;13.396;2023-03-13T00:33:56;100180.91;;;6.58;76.82
57192;BME280;43052;52.588;13.396;2023-03-13T00:36:23;100181.78;;;6.65;76.81
57192;BME280;43052;52.588;13.396;2023-03-13T00:38:50;100174.00;;;6.68;76.92
57192;BME280;43052;52.588;13.396;2023-03-13T00:41:18;100167.06;;;6.75;76.92
57192;BME280;43052;52.588;13.396;2023-03-13T00:43:44;100162.75;;;6.80;76.78
57192;BME280;43052;52.588;13.396;2023-03-13T00:46:10;100157.56;;;6.85;77.01
57192;BME280;43052;52.588;13.396;2023-03-13T00:48:36;100149.75;;;6.89;77.09
57192;BME280;43052;52.588;13.396;2023-03-13T00:51:03;100147.16;;;6.93;76.84
57192;BME280;43052;52.588;13.396;2023-03-13T00:53:28;100146.31;;;6.95;76.89
57192;BME280;43052;52.588;13.396;2023-03-13T00:58:20;100127.25;;;6.96;76.53
57192;BME280;43052;52.588;13.396;2023-03-13T01:00:45;100141.94;;;7.00;76.96
57192;BME280;43052;52.588;13.396;2023-03-13T01:03:11;100131.56;;;6.96;76.90
57192;BME280;43052;52.588;13.396;2023-03-13T01:05:36;100135.91;;;7.00;77.09
57192;BME280;43052;52.588;13.396;2023-03-13T01:08:01;100141.06;;;7.03;77.02
57192;BME280;43052;52.588;13.396;2023-03-13T01:10:27;100141.94;;;7.02;76.88
57192;BME280;43052;52.588;13.396;2023-03-13T01:12:52;100136.75;;;7.05;77.17
57192;BME280;43052;52.588;13.396;2023-03-13T01:15:17;100133.28;;;7.11;76.88
57192;BME280;43052;52.588;13.396;2023-03-13T01:17:44;100135.88;;;7.12;76.80
57192;BME280;43052;52.588;13.396;2023-03-13T01:20:10;100132.41;;;7.13;77.00
57192;BME280;43052;52.588;13.396;2023-03-13T01:22:35;100133.25;;;7.17;76.92
57192;BME280;43052;52.588;13.396;2023-03-13T01:25:01;100129.78;;;7.19;76.99
57192;BME280;43052;52.588;13.396;2023-03-13T01:27:26;100139.31;;;7.20;76.81
57192;BME280;43052;52.588;13.396;2023-03-13T01:29:52;100141.03;;;7.23;76.48
57192;BME280;43052;52.588;13.396;2023-03-13T01:32:17;100139.34;;;7.22;76.70
57192;BME280;43052;52.588;13.396;2023-03-13T01:34:43;100138.44;;;7.21;76.53
57192;BME280;43052;52.588;13.396;2023-03-13T01:37:08;100135.00;;;7.21;76.55
57192;BME280;43052;52.588;13.396;2023-03-13T01:39:33;100135.00;;;7.22;76.37
57192;BME280;43052;52.588;13.396;2023-03-13T01:41:58;100130.63;;;7.23;76.37
57192;BME280;43052;52.588;13.396;2023-03-13T01:44:25;100130.66;;;7.21;76.60
57192;BME280;43052;52.588;13.396;2023-03-13T01:46:51;100126.31;;;7.20;76.36
57192;BME280;43052;52.588;13.396;2023-03-13T01:49:31;100119.41;;;7.21;76.30
57192;BME280;43052;52.588;13.396;2023-03-13T01:52:01;100122.88;;;7.20;76.42
57192;BME280;43052;52.588;13.396;2023-03-13T01:54:31;100122.00;;;7.21;76.23
57192;BME280;43052;52.588;13.396;2023-03-13T01:59:30;100113.31;;;7.24;75.94
57192;BME280;43052;52.588;13.396;2023-03-13T02:01:58;100106.38;;;7.22;76.05
57192;BME280;43052;52.588;13.396;2023-03-13T02:04:26;100094.25;;;7.17;75.96
57192;BME280;43052;52.588;13.396;2023-03-13T02:06:57;100099.44;;;7.25;75.97
57192;BME280;43052;52.588;13.396;2023-03-13T02:09:28;100097.72;;;7.20;76.09
57192;BME280;43052;52.588;13.396;2023-03-13T02:12:08;100097.72;;;7.20;75.92
57192;BME280;43052;52.588;13.396;2023-03-13T02:14:36;100077.78;;;7.21;75.77
57192;BME280;43052;52.588;13.396;2023-03-13T02:17:03;100080.34;;;7.24;75.77
57192;BME280;43052;52.588;13.396;2023-03-13T02:19:32;100074.28;;;7.25;75.58
57192;BME280;43052;52.588;13.396;2023-03-13T02:22:12;100065.63;;;7.25;75.63
57192;BME280;43052;52.588;13.396;2023-03-13T02:27:42;100069.09;;;7.20;75.75
57192;BME280;43052;52.588;13.396;2023-03-13T02:30:10;100068.25;;;7.17;75.46
57192;BME280;43052;52.588;13.396;2023-03-13T02:32:37;100066.53;;;7.13;75.32
57192;BME280;43052;52.588;13.396;2023-03-13T02:35:09;100061.34;;;7.08;75.78
57192;BME280;43052;52.588;13.396;2023-03-13T02:37:35;100052.69;;;7.09;75.68
57192;BME280;43052;52.588;13.396;2023-03-13T02:40:08;100057.88;;;7.09;75.79
57192;BME280;43052;52.588;13.396;2023-03-13T02:42:37;100053.56;;;7.08;75.69
57192;BME280;43052;52.588;13.396;2023-03-13T02:45:04;100054.41;;;7.09;75.61
57192;BME280;43052;52.588;13.396;2023-03-13T02:47:29;100052.66;;;7.08;75.84
57192;BME280;43052;52.588;13.396;2023-03-13T02:49:54;100034.47;;;7.08;75.86
57192;BME280;43052;52.588;13.396;2023-03-13T02:52:32;100037.91;;;7.16;75.93
57192;BME280;43052;52.588;13.396;2023-03-13T02:55:06;100029.22;;;7.18;75.81
57192;BME280;43052;52.588;13.396;2023-03-13T02:57:33;100022.28;;;7.24;75.56
57192;BME280;43052;52.588;13.396;2023-03-13T02:59:59;100019.66;;;7.30;75.60
57192;BME280;43052;52.588;13.396;2023-03-13T03:02:24;100023.13;;;7.35;75.86
57192;BME280;43052;52.588;13.396;2023-03-13T03:04:49;100015.28;;;7.38;75.28
57192;BME280;43052;52.588;13.396;2023-03-13T03:07:15;100015.28;;;7.43;75.46
57192;BME280;43052;52.588;13.396;2023-03-13T03:09:40;100012.66;;;7.47;75.12
57192;BME280;43052;52.588;13.396;2023-03-13T03:12:06;100001.38;;;7.51;75.08
57192;BME280;43052;52.588;13.396;2023-03-13T03:14:31;99992.69;;;7.54;75.11
57192;BME280;43052;52.588;13.396;2023-03-13T03:16:56;99991.78;;;7.57;75.11
57192;BME280;43052;52.588;13.396;2023-03-13T03:19:21;99983.97;;;7.58;74.85
57192;BME280;43052;52.588;13.396;2023-03-13T03:21:47;99988.31;;;7.61;74.88
57192;BME280;43052;52.588;13.396;2023-03-13T03:24:13;99990.88;;;7.64;74.93
57192;BME280;43052;52.588;13.396;2023-03-13T03:26:38;99981.34;;;7.64;74.63
57192;BME280;43052;52.588;13.396;2023-03-13T03:29:04;99984.81;;;7.65;74.61
57192;BME280;43052;52.588;13.396;2023-03-13T03:31:29;99978.75;;;7.64;74.62
57192;BME280;43052;52.588;13.396;2023-03-13T03:33:55;99985.66;;;7.64;74.52
57192;BME280;43052;52.588;13.396;2023-03-13T03:36:21;99979.63;;;7.62;74.72
57192;BME280;43052;52.588;13.396;2023-03-13T03:38:47;99977.91;;;7.61;74.75
57192;BME280;43052;52.588;13.396;2023-03-13T03:41:13;99979.63;;;7.62;74.67
57192;BME280;43052;52.588;13.396;2023-03-13T03:43:39;99973.53;;;7.63;74.67
57192;BME280;43052;52.588;13.396;2023-03-13T03:46:05;99970.94;;;7.64;74.80
57192;BME280;43052;52.588;13.396;2023-03-13T03:48:30;99968.31;;;7.66;75.05
57192;BME280;43052;52.588;13.396;2023-03-13T03:50:56;99965.72;;;7.66;74.81
57192;BME280;43052;52.588;13.396;2023-03-13T03:53:21;99965.69;;;7.67;75.00
57192;BME280;43052;52.588;13.396;2023-03-13T03:55:47;99955.28;;;7.67;74.99
57192;BME280;43052;52.588;13.396;2023-03-13T03:58:12;99953.53;;;7.69;75.23
57192;BME280;43052;52.588;13.396;2023-03-13T04:00:37;99945.75;;;7.69;75.05
57192;BME280;43052;52.588;13.396;2023-03-13T04:03:03;99945.72;;;7.74;75.25
57192;BME280;43052;52.588;13.396;2023-03-13T04:05:28;99944.84;;;7.74;75.11
57192;BME280;43052;52.588;13.396;2023-03-13T04:07:54;99942.25;;;7.74;75.02
57192;BME280;43052;52.588;13.396;2023-03-13T04:10:19;99933.56;;;7.75;74.89
57192;BME280;43052;52.588;13.396;2023-03-13T04:12:44;99928.34;;;7.76;75.03
57192;BME280;43052;52.588;13.396;2023-03-13T04:15:10;99929.22;;;7.78;75.25
57192;BME280;43052;52.588;13.396;2023-03-13T04:17:35;99925.72;;;7.81;75.11
57192;BME280;43052;52.588;13.396;2023-03-13T04:20:00;99917.88;;;7.82;75.01
57192;BME280;43052;52.588;13.396;2023-03-13T04:22:26;99912.69;;;7.82;75.04
57192;BME280;43052;52.588;13.396;2023-03-13T04:24:51;99916.13;;;7.84;74.85
57192;BME280;43052;52.588;13.396;2023-03-13T04:27:16;99910.94;;;7.83;75.29
57192;BME280;43052;52.588;13.396;2023-03-13T04:29:42;99902.22;;;7.87;75.39
57192;BME280;43052;52.588;13.396;2023-03-13T04:32:07;99901.34;;;7.88;74.80
57192;BME280;43052;52.588;13.396;2023-03-13T04:34:32;99899.63;;;7.89;74.90
57192;BME280;43052;52.588;13.396;2023-03-13T04:36:57;99890.94;;;7.88;75.11
57192;BME280;43052;52.588;13.396;2023-03-13T04:39:23;99894.41;;;7.87;75.20
57192;BME280;43052;52.588;13.396;2023-03-13T04:41:53;99880.56;;;7.87;75.18
57192;BME280;43052;52.588;13.396;2023-03-13T04:44:19;99874.44;;;7.89;75.15
57192;BME280;43052;52.588;13.396;2023-03-13T04:46:44;99872.72;;;7.88;75.27
57192;BME280;43052;52.588;13.396;2023-03-13T04:49:09;99871.00;;;7.89;75.13
57192;BME280;43052;52.588;13.396;2023-03-13T04:51:34;99869.28;;;7.88;75.13
57192;BME280;43052;52.588;13.396;2023-03-13T04:54:00;99860.56;;;7.87;75.02
57192;BME280;43052;52.588;13.396;2023-03-13T04:56:26;99857.97;;;7.89;75.15
57192;BME280;43052;52.588;13.396;2023-03-13T04:58:52;99848.47;;;7.84;75.13
57192;BME280;43052;52.588;13.396;2023-03-13T05:01:17;99847.59;;;7.86;75.30
57192;BME280;43052;52.588;13.396;2023-03-13T05:03:42;99845.84;;;7.84;75.62
57192;BME280;43052;52.588;13.396;2023-03-13T05:06:07;99844.09;;;7.85;75.44
57192;BME280;43052;52.588;13.396;2023-03-13T05:08:33;99825.03;;;7.81;75.29
57192;BME280;43052;52.588;13.396;2023-03-13T05:10:59;99816.41;;;7.78;75.62
57192;BME280;43052;52.588;13.396;2023-03-13T05:13:24;99813.81;;;7.79;75.59
57192;BME280;43052;52.588;13.396;2023-03-13T05:15:50;99814.63;;;7.81;75.78
57192;BME280;43052;52.588;13.396;2023-03-13T05:18:15;99802.47;;;7.83;75.80
57192;BME280;43052;52.588;13.396;2023-03-13T05:20:40;99799.03;;;7.81;75.45
57192;BME280;43052;52.588;13.396;2023-03-13T05:23:05;99789.50;;;7.82;75.46
57192;BME280;43052;52.588;13.396;2023-03-13T05:25:31;99790.34;;;7.84;75.31
57192;BME280;43052;52.588;13.396;2023-03-13T05:27:56;99798.16;;;7.82;75.80
57192;BME280;43052;52.588;13.396;2023-03-13T05:30:21;99793.78;;;7.84;75.59
57192;BME280;43052;52.588;13.396;2023-03-13T05:32:47;99787.75;;;7.84;76.13
57192;BME280;43052;52.588;13.396;2023-03-13T05:35:12;99772.16;;;7.78;75.94
57192;BME280;43052;52.588;13.396;2023-03-13T05:37:37;99771.25;;;7.83;76.06
57192;BME280;43052;52.588;13.396;2023-03-13T05:40:03;99772.94;;;7.86;76.05
57192;BME280;43052;52.588;13.396;2023-03-13T05:42:29;99767.75;;;7.88;75.91
57192;BME280;43052;52.588;13.396;2023-03-13T05:44:54;99765.13;;;7.88;76.32
57192;BME280;43052;52.588;13.396;2023-03-13T05:47:19;99757.34;;;7.88;76.25
57192;BME280;43052;52.588;13.396;2023-03-13T05:49:44;99749.53;;;7.88;76.19
57192;BME280;43052;52.588;13.396;2023-03-13T05:52:10;99748.59;;;7.92;76.19
57192;BME280;43052;52.588;13.396;2023-03-13T05:54:35;99737.31;;;7.90;76.25
57192;BME280;43052;52.588;13.396;2023-03-13T05:57:00;99734.69;;;7.96;76.44
57192;BME280;43052;52.588;13.396;2023-03-13T05:59:25;99734.66;;;7.97;76.53
57192;BME280;43052;52.588;13.396;2023-03-13T06:01:51;99732.03;;;7.99;76.46
57192;BME280;43052;52.588;13.396;2023-03-13T06:04:16;99724.22;;;7.99;76.55
57192;BME280;43052;52.588;13.396;2023-03-13T06:06:41;99721.63;;;7.97;76.69
57192;BME280;43052;52.588;13.396;2023-03-13T06:09:06;99721.59;;;7.99;76.79
57192;BME280;43052;52.588;13.396;2023-03-13T06:11:32;99713.78;;;8.02;77.08
57192;BME280;43052;52.588;13.396;2023-03-13T06:13:57;99715.47;;;8.05;76.70
57192;BME280;43052;52.588;13.396;2023-03-13T06:16:22;99712.81;;;8.11;76.68
57192;BME280;43052;52.588;13.396;2023-03-13T06:18:48;99706.72;;;8.10;77.10
57192;BME280;43052;52.588;13.396;2023-03-13T06:21:13;99707.56;;;8.12;77.01
57192;BME280;43052;52.588;13.396;2023-03-13T06:23:38;99704.06;;;8.15;76.51
57192;BME280;43052;52.588;13.396;2023-03-13T06:26:04;99697.06;;;8.19;76.92
57192;BME280;43052;52.588;13.396;2023-03-13T06:28:29;99691.00;;;8.20;76.58
57192;BME280;43052;52.588;13.396;2023-03-13T06:31:00;99680.53;;;8.21;76.69
57192;BME280;43052;52.588;13.396;2023-03-13T06:33:25;99683.16;;;8.23;76.67
57192;BME280;43052;52.588;13.396;2023-03-13T06:35:51;99670.13;;;8.23;76.79
57192;BME280;43052;52.588;13.396;2023-03-13T06:38:16;99665.75;;;8.23;76.91
57192;BME280;43052;52.588;13.396;2023-03-13T06:40:41;99651.03;;;8.21;76.77
57192;BME280;43052;52.588;13.396;2023-03-13T06:43:06;99648.41;;;8.24;76.96
57192;BME280;43052;52.588;13.396;2023-03-13T06:45:34;99643.13;;;8.28;76.88
57192;BME280;43052;52.588;13.396;2023-03-13T06:48:00;99636.16;;;8.29;77.25
57192;BME280;43052;52.588;13.396;2023-03-13T06:50:25;99631.75;;;8.34;76.83
57192;BME280;43052;52.588;13.396;2023-03-13T06:52:50;99630.88;;;8.37;77.03
57192;BME280;43052;52.588;13.396;2023-03-13T06:55:15;99621.25;;;8.39;76.83
57192;BME280;43052;52.588;13.396;2023-03-13T06:57:41;99609.97;;;8.40;76.73
57192;BME280;43052;52.588;13.396;2023-03-13T07:00:09;99614.22;;;8.49;77.13
57192;BME280;43052;52.588;13.396;2023-03-13T07:02:35;99593.25;;;8.55;76.88
57192;BME280;43052;52.588;13.396;2023-03-13T07:05:00;99590.63;;;8.56;76.46
57192;BME280;43052;52.588;13.396;2023-03-13T07:07:29;99595.00;;;8.56;76.51
57192;BME280;43052;52.588;13.396;2023-03-13T07:09:56;99601.00;;;8.59;76.89
57192;BME280;43052;52.588;13.396;2023-03-13T07:12:21;99599.28;;;8.58;76.71
57192;BME280;43052;52.588;13.396;2023-03-13T07:14:47;99599.25;;;8.61;76.57
57192;BME280;43052;52.588;13.396;2023-03-13T07:17:12;99596.69;;;8.58;76.84
57192;BME280;43052;52.588;13.396;2023-03-13T07:19:37;99605.31;;;8.64;76.60
57192;BME280;43052;52.588;13.396;2023-03-13T07:22:02;99598.22;;;8.72;76.66
57192;BME280;43052;52.588;13.396;2023-03-13T07:24:28;99589.41;;;8.77;76.50
57192;BME280;43052;52.588;13.396;2023-03-13T07:26:53;99588.53;;;8.80;76.55
57192;BME280;43052;52.588;13.396;2023-03-13T07:29:18;99591.97;;;8.81;76.35
57192;BME280;43052;52.588;13.396;2023-03-13T07:31:43;99591.13;;;8.78;76.21
57192;BME280;43052;52.588;13.396;2023-03-13T07:34:08;99586.88;;;8.73;76.49
57192;BME280;43052;52.588;13.396;2023-03-13T07:36:34;99574.75;;;8.70;76.60
57192;BME280;43052;52.588;13.396;2023-03-13T07:39:00;99565.16;;;8.74;76.50
57192;BME280;43052;52.588;13.396;2023-03-13T07:41:25;99568.41;;;8.88;76.49
57192;BME280;43052;52.588;13.396;2023-03-13T07:43:50;99563.81;;;9.00;76.23
57192;BME280;43052;52.588;13.396;2023-03-13T07:46:17;99565.47;;;9.05;76.47
57192;BME280;43052;52.588;13.396;2023-03-13T07:48:44;99560.97;;;9.14;76.29
57192;BME280;43052;52.588;13.396;2023-03-13T07:51:13;99551.28;;;9.20;76.31
57192;BME280;43052;52.588;13.396;2023-03-13T07:53:38;99544.13;;;9.32;75.97
57192;BME280;43052;52.588;13.396;2023-03-13T07:56:05;99541.38;;;9.38;75.96
57192;BME280;43052;52.588;13.396;2023-03-13T07:58:33;99537.75;;;9.45;75.70
57192;BME280;43052;52.588;13.396;2023-03-13T08:01:00;99524.75;;;9.44;75.57
57192;BME280;43052;52.588;13.396;2023-03-13T08:03:26;99522.97;;;9.44;75.50
57192;BME280;43052;52.588;13.396;2023-03-13T08:06:00;99532.53;;;9.47;75.44
57192;BME280;43052;52.588;13.396;2023-03-13T08:08:26;99515.97;;;9.46;75.91
57192;BME280;43052;52.588;13.396;2023-03-13T08:10:52;99512.34;;;9.53;75.91
57192;BME280;43052;52.588;13.396;2023-03-13T08:13:17;99517.56;;;9.53;75.58
57192;BME280;43052;52.588;13.396;2023-03-13T08:15:43;99517.72;;;9.47;75.71
57192;BME280;43052;52.588;13.396;2023-03-13T08:18:08;99502.09;;;9.46;76.05
57192;BME280;43052;52.588;13.396;2023-03-13T08:20:33;99501.31;;;9.40;76.23
57192;BME280;43052;52.588;13.396;2023-03-13T08:22:58;99499.53;;;9.43;76.26
57192;BME280;43052;52.588;13.396;2023-03-13T08:25:25;99500.41;;;9.43;76.29
57192;BME280;43052;52.588;13.396;2023-03-13T08:27:50;99488.22;;;9.44;76.62
57192;BME280;43052;52.588;13.396;2023-03-13T08:30:16;99488.16;;;9.47;77.11
57192;BME280;43052;52.588;13.396;2023-03-13T08:32:41;99483.00;;;9.44;76.97
57192;BME280;43052;52.588;13.396;2023-03-13T08:35:07;99488.16;;;9.45;77.20
57192;BME280;43052;52.588;13.396;2023-03-13T08:37:32;99476.09;;;9.39;77.47
57192;BME280;43052;52.588;13.396;2023-03-13T08:39:57;99466.78;;;9.28;77.50
57192;BME280;43052;52.588;13.396;2023-03-13T08:42:22;99469.56;;;9.20;78.21
57192;BME280;43052;52.588;13.396;2023-03-13T08:44:48;99465.28;;;9.16;78.31
57192;BME280;43052;52.588;13.396;2023-03-13T08:47:13;99468.78;;;9.15;78.40
57192;BME280;43052;52.588;13.396;2023-03-13T08:49:39;99475.69;;;9.19;78.71
57192;BME280;43052;52.588;13.396;2023-03-13T08:52:05;99468.59;;;9.24;78.96
57192;BME280;43052;52.588;13.396;2023-03-13T08:54:31;99466.84;;;9.26;78.79
57192;BME280;43052;52.588;13.396;2023-03-13T08:56:56;99459.78;;;9.30;78.86
57192;BME280;43052;52.588;13.396;2023-03-13T08:59:22;99451.03;;;9.32;78.89
57192;BME280;43052;52.588;13.396;2023-03-13T09:01:47;99435.34;;;9.35;78.53
57192;BME280;43052;52.588;13.396;2023-03-13T09:04:12;99444.84;;;9.38;78.79
57192;BME280;43052;52.588;13.396;2023-03-13T09:06:38;99436.06;;;9.40;78.70
57192;BME280;43052;52.588;13.396;2023-03-13T09:09:05;99433.25;;;9.50;78.74
57192;BME280;43052;52.588;13.396;2023-03-13T09:11:31;99427.00;;;9.59;78.60
57192;BME280;43052;52.588;13.396;2023-03-13T09:13:57;99428.56;;;9.66;78.61
57192;BME280;43052;52.588;13.396;2023-03-13T09:16:27;99417.09;;;9.73;78.44
57192;BME280;43052;52.588;13.396;2023-03-13T09:18:54;99419.53;;;9.81;78.15
57192;BME280;43052;52.588;13.396;2023-03-13T09:21:22;99418.47;;;9.88;78.03
57192;BME280;43052;52.588;13.396;2023-03-13T09:23:48;99426.28;;;9.90;77.80
57192;BME280;43052;52.588;13.396;2023-03-13T09:26:16;99427.94;;;9.92;77.49
57192;BME280;43052;52.588;13.396;2023-03-13T09:28:42;99421.75;;;9.96;77.84
57192;BME280;43052;52.588;13.396;2023-03-13T09:31:09;99423.41;;;10.00;77.81
57192;BME280;43052;52.588;13.396;2023-03-13T09:33:35;99418.97;;;10.04;77.73
57192;BME280;43052;52.588;13.396;2023-03-13T09:36:00;99419.81;;;10.04;77.76
57192;BME280;43052;52.588;13.396;2023-03-13T09:38:26;99426.75;;;10.06;77.69
57192;BME280;43052;52.588;13.396;2023-03-13T09:40:52;99431.22;;;10.02;77.74
57192;BME280;43052;52.588;13.396;2023-03-13T09:49:02;99417.38;;;9.97;77.84
57192;BME280;43052;52.588;13.396;2023-03-13T09:51:36;99407.81;;;9.97;77.99
57192;BME280;43052;52.588;13.396;2023-03-13T09:54:33;99406.09;;;9.96;78.25
57192;BME280;43052;52.588;13.396;2023-03-13T10:02:19;99402.59;;;9.97;78.87
57192;BME280;43052;52.588;13.396;2023-03-13T10:04:50;99396.38;;;10.01;78.90
57192;BME280;43052;52.588;13.396;2023-03-13T10:07:17;99399.63;;;10.11;78.71
57192;BME280;43052;52.588;13.396;2023-03-13T10:09:44;99388.06;;;10.20;78.67
57192;BME280;43052;52.588;13.396;2023-03-13T10:12:23;99397.44;;;10.29;78.52
57192;BME280;43052;52.588;13.396;2023-03-13T10:17:54;99393.50;;;10.47;78.09
57192;BME280;43052;52.588;13.396;2023-03-13T10:20:25;99397.78;;;10.51;77.98
57192;BME280;43052;52.588;13.396;2023-03-13T10:23:23;99391.47;;;10.58;78.03
57192;BME280;43052;52.588;13.396;2023-03-13T10:25:51;99388.53;;;10.71;78.01
57192;BME280;43052;52.588;13.396;2023-03-13T10:28:17;99394.13;;;10.88;77.60
57192;BME280;43052;52.588;13.396;2023-03-13T10:30:49;99384.84;;;11.08;77.11
57192;BME280;43052;52.588;13.396;2023-03-13T10:33:26;99363.00;;;11.37;76.80
57192;BME280;43052;52.588;13.396;2023-03-13T10:36:12;99352.88;;;11.55;75.91
57192;BME280;43052;52.588;13.396;2023-03-13T10:38:52;99361.09;;;11.71;75.54
57192;BME280;43052;52.588;13.396;2023-03-13T10:41:37;99358.09;;;11.82;74.90
57192;BME280;43052;52.588;13.396;2023-03-13T10:44:05;99356.91;;;11.92;74.74
57192;BME280;43052;52.588;13.396;2023-03-13T10:46:34;99348.50;;;12.34;74.43
57192;BME280;43052;52.588;13.396;2023-03-13T10:49:02;99331.16;;;13.03;72.78
57192;BME280;43052;52.588;13.396;2023-03-13T10:51:39;99344.13;;;13.52;70.77
57192;BME280;43052;52.588;13.396;2023-03-13T10:54:21;99348.66;;;13.71;70.14
57192;BME280;43052;52.588;13.396;2023-03-13T10:56:47;99342.94;;;13.82;70.06
57192;BME280;43052;52.588;13.396;2023-03-13T10:59:23;99334.28;;;14.00;69.67
57192;BME280;43052;52.588;13.396;2023-03-13T11:01:49;99332.88;;;14.14;68.77
57192;BME280;43052;52.588;13.396;2023-03-13T11:04:34;99328.25;;;14.19;67.52
57192;BME280;43052;52.588;13.396;2023-03-13T11:07:05;99325.25;;;14.47;67.44
57192;BME280;43052;52.588;13.396;2023-03-13T11:09:31;99307.00;;;14.84;66.72
57192;BME280;43052;52.588;13.396;2023-03-13T11:12:03;99310.59;;;15.19;65.86
57192;BME280;43052;52.588;13.396;2023-03-13T11:14:29;99317.94;;;15.49;64.60
57192;BME280;43052;52.588;13.396;2023-03-13T11:17:01;99316.72;;;15.74;64.35
57192;BME280;43052;52.588;13.396;2023-03-13T11:19:49;99318.53;;;15.91;63.35
57192;BME280;43052;52.588;13.396;2023-03-13T11:22:37;99302.19;;;15.85;63.00
57192;BME280;43052;52.588;13.396;2023-03-13T11:25:17;99308.44;;;15.82;62.99
57192;BME280;43052;52.588;13.396;2023-03-13T11:27:57;99299.56;;;15.85;62.79
57192;BME280;43052;52.588;13.396;2023-03-13T11:30:50;99292.59;;;15.84;62.05
57192;BME280;43052;52.588;13.396;2023-03-13T11:33:37;99303.69;;;15.71;62.46
57192;BME280;43052;52.588;13.396;2023-03-13T11:36:16;99308.44;;;15.64;62.62
57192;BME280;43052;52.588;13.396;2023-03-13T11:38:47;99291.75;;;15.64;62.63
57192;BME280;43052;52.588;13.396;2023-03-13T11:41:34;99292.91;;;15.58;62.48
57192;BME280;43052;52.588;13.396;2023-03-13T11:44:21;99301.13;;;15.52;62.25
57192;BME280;43052;52.588;13.396;2023-03-13T11:49:29;99299.78;;;15.43;62.88
57192;BME280;43052;52.588;13.396;2023-03-13T11:52:10;99296.66;;;15.54;62.77
57192;BME280;43052;52.588;13.396;2023-03-13T11:54:57;99285.25;;;15.54;62.38
57192;BME280;43052;52.588;13.396;2023-03-13T11:57:48;99296.00;;;15.49;62.75
57192;BME280;43052;52.588;13.396;2023-03-13T12:00:36;99287.72;;;15.57;62.92
57192;BME280;43052;52.588;13.396;2023-03-13T12:03:15;99282.94;;;15.65;62.56
57192;BME280;43052;52.588;13.396;2023-03-13T12:05:48;99288.06;;;15.68;62.62
57192;BME280;43052;52.588;13.396;2023-03-13T12:08:25;99287.06;;;15.71;62.45
57192;BME280;43052;52.588;13.396;2023-03-13T12:11:15;99289.25;;;15.97;62.21
57192;BME280;43052;52.588;13.396;2023-03-13T12:13:48;99278.22;;;16.40;61.59
57192;BME280;43052;52.588;13.396;2023-03-13T12:16:20;99266.09;;;16.86;60.30
57192;BME280;43052;52.588;13.396;2023-03-13T12:18:48;99259.78;;;16.88;58.72
57192;BME280;43052;52.588;13.396;2023-03-13T12:21:27;99271.03;;;16.76;59.40
57192;BME280;43052;52.588;13.396;2023-03-13T12:24:03;99262.59;;;16.69;59.68
57192;BME280;43052;52.588;13.396;2023-03-13T12:26:37;99260.72;;;16.55;59.87
57192;BME280;43052;52.588;13.396;2023-03-13T12:29:36;99252.28;;;16.49;59.63
57192;BME280;43052;52.588;13.396;2023-03-13T12:37:59;99258.38;;;16.00;60.91
57192;BME280;43052;52.588;13.396;2023-03-13T12:40:56;99254.97;;;16.31;60.57
57192;BME280;43052;52.588;13.396;2023-03-13T12:43:38;99250.06;;;16.41;60.18
57192;BME280;43052;52.588;13.396;2023-03-13T12:51:49;99238.06;;;16.35;60.17
57192;BME280;43052;52.588;13.396;2023-03-13T12:54:46;99228.47;;;16.50;59.67
57192;BME280;43052;52.588;13.396;2023-03-13T12:57:38;99228.56;;;16.81;59.23
57192;BME280;43052;52.588;13.396;2023-03-13T13:00:19;99222.16;;;16.85;58.69
57192;BME280;43052;52.588;13.396;2023-03-13T13:02:46;99231.28;;;16.79;58.97
57192;BME280;43052;52.588;13.396;2023-03-13T13:05:20;99220.19;;;16.88;58.69
57192;BME280;43052;52.588;13.396;2023-03-13T13:07:55;99224.31;;;16.94;58.48
57192;BME280;43052;52.588;13.396;2023-03-13T13:10:23;99222.28;;;16.99;58.38
57192;BME280;43052;52.588;13.396;2023-03-13T13:15:41;99207.66;;;17.24;57.50
57192;BME280;43052;52.588;13.396;2023-03-13T13:18:15;99206.97;;;17.36;57.52
57192;BME280;43052;52.588;13.396;2023-03-13T13:23:40;99208.16;;;17.00;58.36
57192;BME280;43052;52.588;13.396;2023-03-13T13:28:52;99192.22;;;16.54;58.91
57192;BME280;43052;52.588;13.396;2023-03-13T13:31:45;99196.09;;;16.31;59.59
57192;BME280;43052;52.588;13.396;2023-03-13T13:36:53;99194.88;;;16.20;60.00
57192;BME280;43052;52.588;13.396;2023-03-13T13:39:42;99191.47;;;16.18;60.06
57192;BME280;43052;52.588;13.396;2023-03-13T13:45:00;99180.13;;;16.34;59.78
57192;BME280;43052;52.588;13.396;2023-03-13T13:47:27;99172.00;;;16.37;59.80
57192;BME280;43052;52.588;13.396;2023-03-13T13:49:55;99177.97;;;16.40;59.54
57192;BME280;43052;52.588;13.396;2023-03-13T13:52:40;99183.00;;;16.45;59.66
57192;BME280;43052;52.588;13.396;2023-03-13T13:57:51;99178.75;;;16.58;58.69